sensor_id;sensor_type;location;lat;lon;timestamp;P1;durP1;ratioP1;P2;durP2;ratioP2
43678;SDS011;29279;50.858;4.392;2022-12-19T00:01:13;35.50;;;16.25;;
43678;SDS011;29279;50.858;4.392;2022-12-19T00:03:43;33.35;;;15.77;;
43678;SDS011;29279;50.858;4.392;2022-12-19T00:06:10;29.98;;;15.55;;
43678;SDS011;29279;50.858;4.392;2022-12-19T00:08:37;32.20;;;13.63;;
43678;SDS011;29279;50.858;4.392;2022-12-19T00:11:06;29.00;;;13.43;;
43678;SDS011;29279;50.858;4.392;2022-12-19T00:13:31;31.27;;;14.55;;
43678;SDS011;29279;50.858;4.392;2022-12-19T00:16:07;30.27;;;15.27;;
43678;SDS011;29279;50.858;4.392;2022-12-19T00:18:51;28.90;;;14.00;;
43678;SDS011;29279;50.858;4.392;2022-12-19T00:22:13;33.60;;;15.38;;
43678;SDS011;29279;50.858;4.392;2022-12-19T00:24:42;30.52;;;16.60;;
43678;SDS011;29279;50.858;4.392;2022-12-19T00:27:08;40.47;;;16.13;;
43678;SDS011;29279;50.858;4.392;2022-12-19T00:29:42;31.65;;;14.85;;
43678;SDS011;29279;50.858;4.392;2022-12-19T00:32:08;35.25;;;16.67;;
43678;SDS011;29279;50.858;4.392;2022-12-19T00:34:34;38.72;;;15.10;;
43678;SDS011;29279;50.858;4.392;2022-12-19T00:36:59;31.25;;;13.63;;
43678;SDS011;29279;50.858;4.392;2022-12-19T00:39:25;46.10;;;18.42;;
43678;SDS011;29279;50.858;4.392;2022-12-19T00:41:50;39.42;;;17.35;;
43678;SDS011;29279;50.858;4.392;2022-12-19T00:44:16;33.95;;;16.20;;
43678;SDS011;29279;50.858;4.392;2022-12-19T00:46:42;36.25;;;16.88;;
43678;SDS011;29279;50.858;4.392;2022-12-19T00:49:07;46.47;;;18.25;;
43678;SDS011;29279;50.858;4.392;2022-12-19T00:51:34;37.25;;;17.05;;
43678;SDS011;29279;50.858;4.392;2022-12-19T00:54:05;44.83;;;18.48;;
43678;SDS011;29279;50.858;4.392;2022-12-19T00:59:44;43.90;;;18.20;;
43678;SDS011;29279;50.858;4.392;2022-12-19T01:02:10;37.80;;;16.92;;
43678;SDS011;29279;50.858;4.392;2022-12-19T01:04:35;39.08;;;16.52;;
43678;SDS011;29279;50.858;4.392;2022-12-19T01:07:01;32.35;;;16.15;;
43678;SDS011;29279;50.858;4.392;2022-12-19T01:09:29;36.67;;;16.45;;
43678;SDS011;29279;50.858;4.392;2022-12-19T01:11:56;33.03;;;16.73;;
43678;SDS011;29279;50.858;4.392;2022-12-19T01:14:41;41.80;;;17.65;;
43678;SDS011;29279;50.858;4.392;2022-12-19T01:17:06;33.72;;;16.50;;
43678;SDS011;29279;50.858;4.392;2022-12-19T01:19:32;35.38;;;16.10;;
43678;SDS011;29279;50.858;4.392;2022-12-19T01:21:58;40.55;;;14.52;;
43678;SDS011;29279;50.858;4.392;2022-12-19T01:24:23;31.20;;;14.98;;
43678;SDS011;29279;50.858;4.392;2022-12-19T01:26:49;30.88;;;13.65;;
43678;SDS011;29279;50.858;4.392;2022-12-19T01:29:15;30.25;;;15.70;;
43678;SDS011;29279;50.858;4.392;2022-12-19T01:31:44;32.47;;;16.27;;
43678;SDS011;29279;50.858;4.392;2022-12-19T01:34:39;26.27;;;12.98;;
43678;SDS011;29279;50.858;4.392;2022-12-19T01:37:04;30.65;;;14.15;;
43678;SDS011;29279;50.858;4.392;2022-12-19T01:39:33;27.48;;;11.93;;
43678;SDS011;29279;50.858;4.392;2022-12-19T01:42:15;26.15;;;12.68;;
43678;SDS011;29279;50.858;4.392;2022-12-19T01:47:48;24.25;;;13.10;;
43678;SDS011;29279;50.858;4.392;2022-12-19T01:50:28;22.65;;;12.40;;
43678;SDS011;29279;50.858;4.392;2022-12-19T01:53:22;25.70;;;12.75;;
43678;SDS011;29279;50.858;4.392;2022-12-19T01:55:51;22.95;;;11.25;;
43678;SDS011;29279;50.858;4.392;2022-12-19T01:58:19;21.40;;;12.65;;
43678;SDS011;29279;50.858;4.392;2022-12-19T02:00:45;24.10;;;13.05;;
43678;SDS011;29279;50.858;4.392;2022-12-19T02:03:25;20.98;;;12.18;;
43678;SDS011;29279;50.858;4.392;2022-12-19T02:05:53;22.25;;;11.68;;
43678;SDS011;29279;50.858;4.392;2022-12-19T02:08:20;21.90;;;11.35;;
43678;SDS011;29279;50.858;4.392;2022-12-19T02:10:48;19.50;;;11.27;;
43678;SDS011;29279;50.858;4.392;2022-12-19T02:13:14;22.50;;;10.65;;
43678;SDS011;29279;50.858;4.392;2022-12-19T02:18:48;19.20;;;11.77;;
43678;SDS011;29279;50.858;4.392;2022-12-19T02:30:15;16.40;;;8.80;;
43678;SDS011;29279;50.858;4.392;2022-12-19T02:33:01;21.17;;;11.15;;
43678;SDS011;29279;50.858;4.392;2022-12-19T02:38:15;17.95;;;9.85;;
43678;SDS011;29279;50.858;4.392;2022-12-19T02:41:03;23.30;;;12.27;;
43678;SDS011;29279;50.858;4.392;2022-12-19T02:43:31;25.45;;;11.02;;
43678;SDS011;29279;50.858;4.392;2022-12-19T02:46:03;23.08;;;13.00;;
43678;SDS011;29279;50.858;4.392;2022-12-19T02:48:30;21.75;;;10.75;;
43678;SDS011;29279;50.858;4.392;2022-12-19T02:50:56;22.20;;;11.68;;
43678;SDS011;29279;50.858;4.392;2022-12-19T02:53:21;24.02;;;11.45;;
43678;SDS011;29279;50.858;4.392;2022-12-19T02:55:48;21.63;;;11.70;;
43678;SDS011;29279;50.858;4.392;2022-12-19T02:58:28;21.48;;;12.05;;
43678;SDS011;29279;50.858;4.392;2022-12-19T03:01:07;22.42;;;12.05;;
43678;SDS011;29279;50.858;4.392;2022-12-19T03:09:21;23.58;;;13.15;;
43678;SDS011;29279;50.858;4.392;2022-12-19T03:11:50;23.33;;;12.00;;
43678;SDS011;29279;50.858;4.392;2022-12-19T03:14:23;25.50;;;13.13;;
43678;SDS011;29279;50.858;4.392;2022-12-19T03:16:51;25.17;;;12.57;;
43678;SDS011;29279;50.858;4.392;2022-12-19T03:19:17;24.05;;;12.30;;
43678;SDS011;29279;50.858;4.392;2022-12-19T03:21:44;24.85;;;12.70;;
43678;SDS011;29279;50.858;4.392;2022-12-19T03:24:12;28.77;;;12.95;;
43678;SDS011;29279;50.858;4.392;2022-12-19T03:26:56;23.60;;;12.63;;
43678;SDS011;29279;50.858;4.392;2022-12-19T03:32:08;21.05;;;12.50;;
43678;SDS011;29279;50.858;4.392;2022-12-19T03:37:51;22.17;;;11.43;;
43678;SDS011;29279;50.858;4.392;2022-12-19T03:40:21;18.38;;;10.57;;
43678;SDS011;29279;50.858;4.392;2022-12-19T03:42:51;17.90;;;10.57;;
43678;SDS011;29279;50.858;4.392;2022-12-19T03:48:38;16.83;;;10.18;;
43678;SDS011;29279;50.858;4.392;2022-12-19T03:51:06;19.70;;;10.35;;
43678;SDS011;29279;50.858;4.392;2022-12-19T03:59:48;15.82;;;9.82;;
43678;SDS011;29279;50.858;4.392;2022-12-19T04:01:48;12.80;;;7.70;;
43678;SDS011;29279;50.858;4.392;2022-12-19T04:04:15;15.57;;;8.75;;
43678;SDS011;29279;50.858;4.392;2022-12-19T04:06:42;14.38;;;9.27;;
43678;SDS011;29279;50.858;4.392;2022-12-19T04:09:09;13.95;;;8.57;;
43678;SDS011;29279;50.858;4.392;2022-12-19T04:11:43;15.80;;;9.50;;
43678;SDS011;29279;50.858;4.392;2022-12-19T04:14:15;12.57;;;8.30;;
43678;SDS011;29279;50.858;4.392;2022-12-19T04:16:50;16.02;;;8.55;;
43678;SDS011;29279;50.858;4.392;2022-12-19T04:19:24;12.38;;;7.95;;
43678;SDS011;29279;50.858;4.392;2022-12-19T04:22:11;16.38;;;7.35;;
43678;SDS011;29279;50.858;4.392;2022-12-19T04:24:56;16.25;;;8.65;;
43678;SDS011;29279;50.858;4.392;2022-12-19T04:27:24;13.60;;;6.95;;
43678;SDS011;29279;50.858;4.392;2022-12-19T04:29:53;14.90;;;8.10;;
43678;SDS011;29279;50.858;4.392;2022-12-19T04:32:21;12.15;;;7.70;;
43678;SDS011;29279;50.858;4.392;2022-12-19T04:34:48;12.80;;;7.18;;
43678;SDS011;29279;50.858;4.392;2022-12-19T04:37:14;12.13;;;7.50;;
43678;SDS011;29279;50.858;4.392;2022-12-19T04:39:40;12.55;;;7.40;;
43678;SDS011;29279;50.858;4.392;2022-12-19T04:42:06;12.45;;;6.68;;
43678;SDS011;29279;50.858;4.392;2022-12-19T04:44:32;13.70;;;7.10;;
43678;SDS011;29279;50.858;4.392;2022-12-19T04:46:57;12.52;;;7.72;;
43678;SDS011;29279;50.858;4.392;2022-12-19T04:49:23;11.45;;;7.90;;
43678;SDS011;29279;50.858;4.392;2022-12-19T04:51:48;11.55;;;7.07;;
43678;SDS011;29279;50.858;4.392;2022-12-19T04:54:14;11.23;;;7.43;;
43678;SDS011;29279;50.858;4.392;2022-12-19T04:56:40;16.00;;;7.13;;
43678;SDS011;29279;50.858;4.392;2022-12-19T04:59:06;10.57;;;7.13;;
43678;SDS011;29279;50.858;4.392;2022-12-19T05:01:32;13.32;;;7.00;;
43678;SDS011;29279;50.858;4.392;2022-12-19T05:03:57;13.52;;;8.02;;
43678;SDS011;29279;50.858;4.392;2022-12-19T05:06:23;9.80;;;6.25;;
43678;SDS011;29279;50.858;4.392;2022-12-19T05:08:50;14.88;;;6.60;;
43678;SDS011;29279;50.858;4.392;2022-12-19T05:11:15;9.13;;;6.25;;
43678;SDS011;29279;50.858;4.392;2022-12-19T05:13:41;12.82;;;7.28;;
43678;SDS011;29279;50.858;4.392;2022-12-19T05:16:09;10.95;;;6.22;;
43678;SDS011;29279;50.858;4.392;2022-12-19T05:18:36;11.90;;;6.95;;
43678;SDS011;29279;50.858;4.392;2022-12-19T05:21:03;14.25;;;6.63;;
43678;SDS011;29279;50.858;4.392;2022-12-19T05:23:32;8.93;;;6.43;;
43678;SDS011;29279;50.858;4.392;2022-12-19T05:25:58;12.02;;;6.82;;
43678;SDS011;29279;50.858;4.392;2022-12-19T05:28:25;7.38;;;5.28;;
43678;SDS011;29279;50.858;4.392;2022-12-19T05:30:51;9.75;;;5.70;;
43678;SDS011;29279;50.858;4.392;2022-12-19T05:33:16;10.30;;;5.95;;
43678;SDS011;29279;50.858;4.392;2022-12-19T05:35:42;7.68;;;5.75;;
43678;SDS011;29279;50.858;4.392;2022-12-19T05:38:08;11.07;;;6.22;;
43678;SDS011;29279;50.858;4.392;2022-12-19T05:40:33;8.75;;;5.95;;
43678;SDS011;29279;50.858;4.392;2022-12-19T05:42:59;9.77;;;5.97;;
43678;SDS011;29279;50.858;4.392;2022-12-19T05:45:25;9.60;;;6.28;;
43678;SDS011;29279;50.858;4.392;2022-12-19T05:47:51;11.57;;;5.90;;
43678;SDS011;29279;50.858;4.392;2022-12-19T05:50:17;10.63;;;6.40;;
43678;SDS011;29279;50.858;4.392;2022-12-19T05:52:43;13.30;;;6.57;;
43678;SDS011;29279;50.858;4.392;2022-12-19T05:55:08;8.77;;;5.53;;
43678;SDS011;29279;50.858;4.392;2022-12-19T05:57:35;10.98;;;5.72;;
43678;SDS011;29279;50.858;4.392;2022-12-19T06:00:01;12.25;;;5.60;;
43678;SDS011;29279;50.858;4.392;2022-12-19T06:02:31;12.35;;;6.50;;
43678;SDS011;29279;50.858;4.392;2022-12-19T06:04:57;11.35;;;6.32;;
43678;SDS011;29279;50.858;4.392;2022-12-19T06:07:23;8.93;;;5.43;;
43678;SDS011;29279;50.858;4.392;2022-12-19T06:09:48;9.30;;;6.13;;
43678;SDS011;29279;50.858;4.392;2022-12-19T06:12:14;10.77;;;5.55;;
43678;SDS011;29279;50.858;4.392;2022-12-19T06:14:40;8.38;;;5.30;;
43678;SDS011;29279;50.858;4.392;2022-12-19T06:17:05;8.52;;;5.68;;
43678;SDS011;29279;50.858;4.392;2022-12-19T06:19:31;9.30;;;6.30;;
43678;SDS011;29279;50.858;4.392;2022-12-19T06:21:57;11.50;;;5.25;;
43678;SDS011;29279;50.858;4.392;2022-12-19T06:24:23;7.38;;;5.43;;
43678;SDS011;29279;50.858;4.392;2022-12-19T06:26:49;11.23;;;6.13;;
43678;SDS011;29279;50.858;4.392;2022-12-19T06:29:15;12.02;;;6.25;;
43678;SDS011;29279;50.858;4.392;2022-12-19T06:31:40;10.30;;;5.78;;
43678;SDS011;29279;50.858;4.392;2022-12-19T06:34:07;10.15;;;5.80;;
43678;SDS011;29279;50.858;4.392;2022-12-19T06:36:34;8.02;;;5.25;;
43678;SDS011;29279;50.858;4.392;2022-12-19T06:39:00;8.57;;;4.65;;
43678;SDS011;29279;50.858;4.392;2022-12-19T06:41:26;7.35;;;5.20;;
43678;SDS011;29279;50.858;4.392;2022-12-19T06:44:12;8.27;;;5.25;;
43678;SDS011;29279;50.858;4.392;2022-12-19T06:46:40;9.77;;;5.82;;
43678;SDS011;29279;50.858;4.392;2022-12-19T06:49:06;9.10;;;4.88;;
43678;SDS011;29279;50.858;4.392;2022-12-19T06:51:33;9.35;;;5.22;;
43678;SDS011;29279;50.858;4.392;2022-12-19T06:53:59;9.68;;;5.80;;
43678;SDS011;29279;50.858;4.392;2022-12-19T06:56:25;9.55;;;6.03;;
43678;SDS011;29279;50.858;4.392;2022-12-19T06:58:51;8.70;;;4.88;;
43678;SDS011;29279;50.858;4.392;2022-12-19T07:01:30;9.45;;;4.97;;
43678;SDS011;29279;50.858;4.392;2022-12-19T07:04:09;9.30;;;4.57;;
43678;SDS011;29279;50.858;4.392;2022-12-19T07:06:39;8.25;;;4.78;;
43678;SDS011;29279;50.858;4.392;2022-12-19T07:09:05;7.97;;;5.35;;
43678;SDS011;29279;50.858;4.392;2022-12-19T07:11:30;7.22;;;4.38;;
43678;SDS011;29279;50.858;4.392;2022-12-19T07:13:56;8.27;;;5.47;;
43678;SDS011;29279;50.858;4.392;2022-12-19T07:16:22;10.05;;;5.10;;
43678;SDS011;29279;50.858;4.392;2022-12-19T07:18:49;9.95;;;5.03;;
43678;SDS011;29279;50.858;4.392;2022-12-19T07:21:14;7.53;;;4.95;;
43678;SDS011;29279;50.858;4.392;2022-12-19T07:23:40;10.63;;;5.30;;
43678;SDS011;29279;50.858;4.392;2022-12-19T07:26:07;12.50;;;5.65;;
43678;SDS011;29279;50.858;4.392;2022-12-19T07:28:33;10.05;;;5.43;;
43678;SDS011;29279;50.858;4.392;2022-12-19T07:30:59;14.68;;;5.75;;
43678;SDS011;29279;50.858;4.392;2022-12-19T07:33:25;8.35;;;5.22;;
43678;SDS011;29279;50.858;4.392;2022-12-19T07:35:50;10.15;;;5.18;;
43678;SDS011;29279;50.858;4.392;2022-12-19T07:38:16;8.35;;;4.95;;
43678;SDS011;29279;50.858;4.392;2022-12-19T07:40:42;8.57;;;4.93;;
43678;SDS011;29279;50.858;4.392;2022-12-19T07:43:07;8.45;;;4.72;;
43678;SDS011;29279;50.858;4.392;2022-12-19T07:45:35;9.57;;;5.45;;
43678;SDS011;29279;50.858;4.392;2022-12-19T07:48:02;10.18;;;5.47;;
43678;SDS011;29279;50.858;4.392;2022-12-19T07:50:29;11.10;;;5.88;;
43678;SDS011;29279;50.858;4.392;2022-12-19T07:52:56;10.35;;;4.55;;
43678;SDS011;29279;50.858;4.392;2022-12-19T07:55:22;10.68;;;4.75;;
43678;SDS011;29279;50.858;4.392;2022-12-19T07:57:48;8.77;;;4.55;;
43678;SDS011;29279;50.858;4.392;2022-12-19T08:00:13;9.25;;;4.63;;
43678;SDS011;29279;50.858;4.392;2022-12-19T08:02:39;13.10;;;5.00;;
43678;SDS011;29279;50.858;4.392;2022-12-19T08:05:05;6.93;;;4.32;;
43678;SDS011;29279;50.858;4.392;2022-12-19T08:07:31;15.88;;;4.75;;
43678;SDS011;29279;50.858;4.392;2022-12-19T08:09:57;7.97;;;4.50;;
43678;SDS011;29279;50.858;4.392;2022-12-19T08:12:22;11.15;;;4.35;;
43678;SDS011;29279;50.858;4.392;2022-12-19T08:14:48;12.38;;;6.40;;
43678;SDS011;29279;50.858;4.392;2022-12-19T08:17:14;7.82;;;4.63;;
43678;SDS011;29279;50.858;4.392;2022-12-19T08:19:40;9.18;;;4.07;;
43678;SDS011;29279;50.858;4.392;2022-12-19T08:22:06;7.15;;;4.35;;
43678;SDS011;29279;50.858;4.392;2022-12-19T08:24:31;7.68;;;4.80;;
43678;SDS011;29279;50.858;4.392;2022-12-19T08:26:57;9.00;;;4.57;;
43678;SDS011;29279;50.858;4.392;2022-12-19T08:29:23;8.95;;;4.60;;
43678;SDS011;29279;50.858;4.392;2022-12-19T08:31:49;8.43;;;4.65;;
43678;SDS011;29279;50.858;4.392;2022-12-19T08:34:15;6.13;;;4.00;;
43678;SDS011;29279;50.858;4.392;2022-12-19T08:36:40;7.15;;;4.35;;
43678;SDS011;29279;50.858;4.392;2022-12-19T08:39:06;10.43;;;4.35;;
43678;SDS011;29279;50.858;4.392;2022-12-19T08:41:32;7.10;;;4.30;;
43678;SDS011;29279;50.858;4.392;2022-12-19T08:43:58;8.40;;;4.07;;
43678;SDS011;29279;50.858;4.392;2022-12-19T08:46:24;9.82;;;4.00;;
43678;SDS011;29279;50.858;4.392;2022-12-19T08:48:51;6.60;;;4.18;;
43678;SDS011;29279;50.858;4.392;2022-12-19T08:51:17;6.05;;;4.05;;
43678;SDS011;29279;50.858;4.392;2022-12-19T08:53:44;7.85;;;4.20;;
43678;SDS011;29279;50.858;4.392;2022-12-19T08:56:17;8.32;;;4.10;;
43678;SDS011;29279;50.858;4.392;2022-12-19T08:58:44;9.55;;;4.05;;
43678;SDS011;29279;50.858;4.392;2022-12-19T09:01:11;13.90;;;4.43;;
43678;SDS011;29279;50.858;4.392;2022-12-19T09:03:43;9.10;;;4.15;;
43678;SDS011;29279;50.858;4.392;2022-12-19T09:06:09;7.20;;;4.13;;
43678;SDS011;29279;50.858;4.392;2022-12-19T09:08:37;14.23;;;3.83;;
43678;SDS011;29279;50.858;4.392;2022-12-19T09:11:11;13.85;;;4.50;;
43678;SDS011;29279;50.858;4.392;2022-12-19T09:13:39;5.13;;;3.63;;
43678;SDS011;29279;50.858;4.392;2022-12-19T09:16:07;10.57;;;4.25;;
43678;SDS011;29279;50.858;4.392;2022-12-19T09:18:36;6.25;;;3.55;;
43678;SDS011;29279;50.858;4.392;2022-12-19T09:21:02;7.50;;;4.38;;
43678;SDS011;29279;50.858;4.392;2022-12-19T09:23:28;6.65;;;3.58;;
43678;SDS011;29279;50.858;4.392;2022-12-19T09:25:56;8.45;;;4.20;;
43678;SDS011;29279;50.858;4.392;2022-12-19T09:28:29;7.70;;;4.07;;
43678;SDS011;29279;50.858;4.392;2022-12-19T09:30:55;6.97;;;3.90;;
43678;SDS011;29279;50.858;4.392;2022-12-19T09:33:22;9.48;;;4.38;;
43678;SDS011;29279;50.858;4.392;2022-12-19T09:35:49;7.85;;;4.03;;
43678;SDS011;29279;50.858;4.392;2022-12-19T09:38:16;7.53;;;4.03;;
43678;SDS011;29279;50.858;4.392;2022-12-19T09:41:01;10.50;;;4.30;;
43678;SDS011;29279;50.858;4.392;2022-12-19T09:46:15;9.60;;;3.88;;
43678;SDS011;29279;50.858;4.392;2022-12-19T09:48:46;5.47;;;3.78;;
43678;SDS011;29279;50.858;4.392;2022-12-19T09:54:05;5.80;;;4.05;;
43678;SDS011;29279;50.858;4.392;2022-12-19T09:56:37;10.13;;;5.05;;
43678;SDS011;29279;50.858;4.392;2022-12-19T09:59:23;7.20;;;3.70;;
43678;SDS011;29279;50.858;4.392;2022-12-19T10:05:13;6.55;;;3.10;;
43678;SDS011;29279;50.858;4.392;2022-12-19T10:07:43;9.05;;;4.25;;
43678;SDS011;29279;50.858;4.392;2022-12-19T10:10:16;6.13;;;3.80;;
43678;SDS011;29279;50.858;4.392;2022-12-19T10:19:06;9.38;;;4.47;;
43678;SDS011;29279;50.858;4.392;2022-12-19T10:27:30;7.20;;;3.78;;
43678;SDS011;29279;50.858;4.392;2022-12-19T10:35:17;8.65;;;3.35;;
43678;SDS011;29279;50.858;4.392;2022-12-19T10:37:49;6.55;;;3.38;;
43678;SDS011;29279;50.858;4.392;2022-12-19T10:40:31;7.68;;;3.40;;
43678;SDS011;29279;50.858;4.392;2022-12-19T10:45:34;7.50;;;3.30;;
43678;SDS011;29279;50.858;4.392;2022-12-19T10:48:05;6.72;;;3.15;;
43678;SDS011;29279;50.858;4.392;2022-12-19T10:50:34;6.38;;;2.83;;
43678;SDS011;29279;50.858;4.392;2022-12-19T10:55:32;6.25;;;3.08;;
43678;SDS011;29279;50.858;4.392;2022-12-19T10:58:11;4.78;;;3.05;;
43678;SDS011;29279;50.858;4.392;2022-12-19T11:03:33;7.68;;;2.95;;
43678;SDS011;29279;50.858;4.392;2022-12-19T11:06:00;6.80;;;2.65;;
43678;SDS011;29279;50.858;4.392;2022-12-19T11:08:29;9.48;;;2.95;;
43678;SDS011;29279;50.858;4.392;2022-12-19T11:11:08;7.05;;;2.70;;
43678;SDS011;29279;50.858;4.392;2022-12-19T11:16:05;4.40;;;2.22;;
43678;SDS011;29279;50.858;4.392;2022-12-19T11:18:33;3.97;;;2.42;;
43678;SDS011;29279;50.858;4.392;2022-12-19T11:26:30;3.80;;;2.30;;
43678;SDS011;29279;50.858;4.392;2022-12-19T11:29:14;4.47;;;2.42;;
43678;SDS011;29279;50.858;4.392;2022-12-19T11:31:41;3.70;;;1.70;;
43678;SDS011;29279;50.858;4.392;2022-12-19T11:34:21;4.45;;;2.50;;
43678;SDS011;29279;50.858;4.392;2022-12-19T11:36:50;6.55;;;2.60;;
43678;SDS011;29279;50.858;4.392;2022-12-19T11:47:19;5.82;;;2.75;;
43678;SDS011;29279;50.858;4.392;2022-12-19T11:49:50;6.72;;;2.60;;
43678;SDS011;29279;50.858;4.392;2022-12-19T11:55:22;6.03;;;2.47;;
43678;SDS011;29279;50.858;4.392;2022-12-19T11:57:59;4.40;;;2.35;;
43678;SDS011;29279;50.858;4.392;2022-12-19T12:00:25;4.35;;;2.33;;
43678;SDS011;29279;50.858;4.392;2022-12-19T12:05:42;6.97;;;2.83;;
43678;SDS011;29279;50.858;4.392;2022-12-19T12:10:53;8.40;;;2.53;;
43678;SDS011;29279;50.858;4.392;2022-12-19T12:16:25;6.38;;;2.60;;
43678;SDS011;29279;50.858;4.392;2022-12-19T12:19:19;9.02;;;2.15;;
43678;SDS011;29279;50.858;4.392;2022-12-19T12:28:41;4.65;;;2.58;;
43678;SDS011;29279;50.858;4.392;2022-12-19T12:39:37;5.00;;;2.28;;
43678;SDS011;29279;50.858;4.392;2022-12-19T12:42:32;7.38;;;2.30;;
43678;SDS011;29279;50.858;4.392;2022-12-19T12:44:59;5.00;;;2.13;;
43678;SDS011;29279;50.858;4.392;2022-12-19T12:47:33;3.55;;;2.22;;
43678;SDS011;29279;50.858;4.392;2022-12-19T12:50:01;16.38;;;2.22;;
43678;SDS011;29279;50.858;4.392;2022-12-19T12:52:43;7.53;;;1.95;;
43678;SDS011;29279;50.858;4.392;2022-12-19T12:55:25;3.47;;;2.40;;
43678;SDS011;29279;50.858;4.392;2022-12-19T12:58:01;6.65;;;2.22;;
43678;SDS011;29279;50.858;4.392;2022-12-19T13:00:28;6.50;;;2.42;;
43678;SDS011;29279;50.858;4.392;2022-12-19T13:05:35;7.72;;;2.30;;
43678;SDS011;29279;50.858;4.392;2022-12-19T13:10:56;6.35;;;2.60;;
43678;SDS011;29279;50.858;4.392;2022-12-19T13:24:56;7.65;;;2.05;;
43678;SDS011;29279;50.858;4.392;2022-12-19T13:27:39;4.65;;;2.17;;
43678;SDS011;29279;50.858;4.392;2022-12-19T13:30:14;4.55;;;1.85;;
43678;SDS011;29279;50.858;4.392;2022-12-19T13:35:52;12.65;;;3.60;;
43678;SDS011;29279;50.858;4.392;2022-12-19T13:41:00;4.88;;;2.10;;
43678;SDS011;29279;50.858;4.392;2022-12-19T13:43:47;14.07;;;3.38;;
43678;SDS011;29279;50.858;4.392;2022-12-19T13:49:02;8.43;;;2.30;;
43678;SDS011;29279;50.858;4.392;2022-12-19T13:51:48;5.53;;;1.83;;
43678;SDS011;29279;50.858;4.392;2022-12-19T13:56:58;3.70;;;1.98;;
43678;SDS011;29279;50.858;4.392;2022-12-19T13:59:25;13.88;;;3.53;;
43678;SDS011;29279;50.858;4.392;2022-12-19T14:01:55;6.35;;;2.25;;
43678;SDS011;29279;50.858;4.392;2022-12-19T14:04:31;7.65;;;2.05;;
43678;SDS011;29279;50.858;4.392;2022-12-19T14:06:59;4.97;;;2.00;;
43678;SDS011;29279;50.858;4.392;2022-12-19T14:09:29;5.53;;;2.20;;
43678;SDS011;29279;50.858;4.392;2022-12-19T14:11:58;6.43;;;2.40;;
43678;SDS011;29279;50.858;4.392;2022-12-19T14:14:27;5.00;;;2.33;;
43678;SDS011;29279;50.858;4.392;2022-12-19T14:17:14;17.23;;;2.90;;
43678;SDS011;29279;50.858;4.392;2022-12-19T14:19:42;6.05;;;2.08;;
43678;SDS011;29279;50.858;4.392;2022-12-19T14:22:17;5.07;;;2.65;;
43678;SDS011;29279;50.858;4.392;2022-12-19T14:25:00;5.18;;;2.10;;
43678;SDS011;29279;50.858;4.392;2022-12-19T14:29:59;5.65;;;2.50;;
43678;SDS011;29279;50.858;4.392;2022-12-19T14:32:26;6.22;;;2.42;;
43678;SDS011;29279;50.858;4.392;2022-12-19T14:34:52;5.38;;;2.10;;
43678;SDS011;29279;50.858;4.392;2022-12-19T14:37:25;6.63;;;2.13;;
43678;SDS011;29279;50.858;4.392;2022-12-19T14:40:38;5.32;;;2.45;;
43678;SDS011;29279;50.858;4.392;2022-12-19T14:42:49;4.25;;;2.13;;
43678;SDS011;29279;50.858;4.392;2022-12-19T14:45:38;6.18;;;2.15;;
43678;SDS011;29279;50.858;4.392;2022-12-19T14:53:35;6.38;;;2.42;;
43678;SDS011;29279;50.858;4.392;2022-12-19T14:56:22;4.78;;;2.00;;
43678;SDS011;29279;50.858;4.392;2022-12-19T14:58:55;6.20;;;2.30;;
43678;SDS011;29279;50.858;4.392;2022-12-19T15:01:22;6.28;;;2.08;;
43678;SDS011;29279;50.858;4.392;2022-12-19T15:04:13;8.80;;;2.17;;
43678;SDS011;29279;50.858;4.392;2022-12-19T15:06:42;4.65;;;2.17;;
43678;SDS011;29279;50.858;4.392;2022-12-19T15:09:12;3.67;;;2.03;;
43678;SDS011;29279;50.858;4.392;2022-12-19T15:11:45;5.45;;;1.95;;
43678;SDS011;29279;50.858;4.392;2022-12-19T15:14:45;4.28;;;1.70;;
43678;SDS011;29279;50.858;4.392;2022-12-19T15:17:16;4.28;;;2.17;;
43678;SDS011;29279;50.858;4.392;2022-12-19T15:19:47;5.38;;;2.50;;
43678;SDS011;29279;50.858;4.392;2022-12-19T15:22:14;6.00;;;2.20;;
43678;SDS011;29279;50.858;4.392;2022-12-19T15:24:41;4.28;;;2.00;;
43678;SDS011;29279;50.858;4.392;2022-12-19T15:27:15;6.70;;;2.28;;
43678;SDS011;29279;50.858;4.392;2022-12-19T15:29:42;5.28;;;2.10;;
43678;SDS011;29279;50.858;4.392;2022-12-19T15:32:11;5.07;;;2.33;;
43678;SDS011;29279;50.858;4.392;2022-12-19T15:34:39;7.05;;;2.25;;
43678;SDS011;29279;50.858;4.392;2022-12-19T15:37:08;5.18;;;2.78;;
43678;SDS011;29279;50.858;4.392;2022-12-19T15:39:35;9.68;;;2.90;;
43678;SDS011;29279;50.858;4.392;2022-12-19T15:42:00;10.60;;;2.22;;
43678;SDS011;29279;50.858;4.392;2022-12-19T15:44:30;4.22;;;1.90;;
43678;SDS011;29279;50.858;4.392;2022-12-19T15:47:01;8.63;;;2.40;;
43678;SDS011;29279;50.858;4.392;2022-12-19T15:49:29;7.07;;;2.70;;
43678;SDS011;29279;50.858;4.392;2022-12-19T15:51:56;7.53;;;2.40;;
43678;SDS011;29279;50.858;4.392;2022-12-19T15:54:23;3.80;;;2.17;;
43678;SDS011;29279;50.858;4.392;2022-12-19T15:56:52;7.45;;;2.30;;
43678;SDS011;29279;50.858;4.392;2022-12-19T15:59:34;5.70;;;2.25;;
43678;SDS011;29279;50.858;4.392;2022-12-19T16:02:15;5.32;;;2.42;;
43678;SDS011;29279;50.858;4.392;2022-12-19T16:04:43;4.53;;;2.17;;
43678;SDS011;29279;50.858;4.392;2022-12-19T16:07:14;5.20;;;1.98;;
43678;SDS011;29279;50.858;4.392;2022-12-19T16:09:44;3.65;;;2.20;;
43678;SDS011;29279;50.858;4.392;2022-12-19T16:12:14;7.03;;;2.33;;
43678;SDS011;29279;50.858;4.392;2022-12-19T16:14:46;6.03;;;2.75;;
43678;SDS011;29279;50.858;4.392;2022-12-19T16:17:19;9.05;;;3.10;;
43678;SDS011;29279;50.858;4.392;2022-12-19T16:19:47;8.05;;;3.38;;
43678;SDS011;29279;50.858;4.392;2022-12-19T16:22:24;5.50;;;2.40;;
43678;SDS011;29279;50.858;4.392;2022-12-19T16:24:51;8.80;;;2.50;;
43678;SDS011;29279;50.858;4.392;2022-12-19T16:27:22;8.02;;;2.78;;
43678;SDS011;29279;50.858;4.392;2022-12-19T16:29:53;8.77;;;3.08;;
43678;SDS011;29279;50.858;4.392;2022-12-19T16:32:19;4.57;;;2.47;;
43678;SDS011;29279;50.858;4.392;2022-12-19T16:34:48;5.65;;;2.95;;
43678;SDS011;29279;50.858;4.392;2022-12-19T16:37:14;5.13;;;2.50;;
43678;SDS011;29279;50.858;4.392;2022-12-19T16:39:40;5.22;;;2.42;;
43678;SDS011;29279;50.858;4.392;2022-12-19T16:42:13;5.38;;;2.10;;
43678;SDS011;29279;50.858;4.392;2022-12-19T16:44:40;4.40;;;2.40;;
43678;SDS011;29279;50.858;4.392;2022-12-19T16:47:11;7.45;;;2.20;;
43678;SDS011;29279;50.858;4.392;2022-12-19T16:49:39;5.03;;;2.25;;
43678;SDS011;29279;50.858;4.392;2022-12-19T16:52:05;9.43;;;3.22;;
43678;SDS011;29279;50.858;4.392;2022-12-19T16:54:30;6.13;;;2.88;;
43678;SDS011;29279;50.858;4.392;2022-12-19T16:56:56;7.95;;;2.75;;
43678;SDS011;29279;50.858;4.392;2022-12-19T16:59:32;9.10;;;2.80;;
43678;SDS011;29279;50.858;4.392;2022-12-19T17:05:05;5.63;;;2.50;;
43678;SDS011;29279;50.858;4.392;2022-12-19T17:07:38;6.70;;;2.25;;
43678;SDS011;29279;50.858;4.392;2022-12-19T17:10:03;6.53;;;2.75;;
43678;SDS011;29279;50.858;4.392;2022-12-19T17:12:29;8.07;;;2.55;;
43678;SDS011;29279;50.858;4.392;2022-12-19T17:14:55;6.18;;;2.53;;
43678;SDS011;29279;50.858;4.392;2022-12-19T17:17:22;6.82;;;2.72;;
43678;SDS011;29279;50.858;4.392;2022-12-19T17:19:48;7.28;;;2.65;;
43678;SDS011;29279;50.858;4.392;2022-12-19T17:22:15;6.28;;;2.83;;
43678;SDS011;29279;50.858;4.392;2022-12-19T17:24:46;7.38;;;2.55;;
43678;SDS011;29279;50.858;4.392;2022-12-19T17:27:13;7.78;;;3.10;;
43678;SDS011;29279;50.858;4.392;2022-12-19T17:29:41;8.95;;;5.93;;
43678;SDS011;29279;50.858;4.392;2022-12-19T17:32:09;5.80;;;2.55;;